createdAt,value
2017-05-13T08:25:41.215Z,355
2017-05-13T08:26:41.880Z,375
2017-05-13T08:27:42.556Z,400
2017-05-13T08:28:43.236Z,425
2017-05-13T08:29:43.912Z,455
2017-05-13T08:30:44.613Z,480
2017-05-13T08:31:45.271Z,505
2017-05-13T08:32:45.959Z,510
2017-05-13T08:33:46.629Z,520
2017-05-13T08:34:47.308Z,545
2017-05-13T08:35:48.041Z,605
2017-05-13T08:36:48.762Z,670
2017-05-13T08:37:49.498Z,780
2017-05-13T08:38:50.184Z,775
2017-05-13T08:39:50.859Z,680
2017-05-13T08:40:51.537Z,600
2017-05-13T08:41:52.222Z,555
2017-05-13T08:42:52.901Z,520
2017-05-13T08:43:53.594Z,510
2017-05-13T08:44:54.274Z,505
2017-05-13T08:45:54.945Z,510
2017-05-13T08:46:55.639Z,520
2017-05-13T08:47:56.320Z,525
2017-05-13T08:48:57.042Z,515
2017-05-13T08:49:57.708Z,500
2017-05-13T08:50:58.443Z,485
2017-05-13T08:51:59.079Z,480
2017-05-13T08:52:59.776Z,490
2017-05-13T08:54:00.483Z,505
2017-05-13T08:55:01.161Z,500
2017-05-13T08:56:01.869Z,485
2017-05-13T08:57:02.555Z,465
2017-05-13T08:58:03.277Z,445
2017-05-13T08:59:03.951Z,430
2017-05-13T09:00:04.627Z,430
2017-05-13T09:01:05.362Z,450
2017-05-13T09:02:06.088Z,425
2017-05-13T09:03:06.778Z,420
2017-05-13T09:04:07.476Z,415
2017-05-13T09:05:08.175Z,400
2017-05-13T09:06:08.847Z,405
2017-05-13T09:07:09.583Z,405
2017-05-13T09:08:10.272Z,415
2017-05-13T09:09:10.948Z,420
2017-05-13T09:10:11.642Z,425
2017-05-13T09:11:12.339Z,425
2017-05-13T09:12:13.050Z,430
2017-05-13T09:13:13.720Z,435
2017-05-13T09:14:14.414Z,440
2017-05-13T09:15:15.109Z,440
2017-05-13T09:16:15.780Z,435
2017-05-13T09:17:16.449Z,430
2017-05-13T09:18:17.136Z,430
2017-05-13T09:19:17.859Z,430
2017-05-13T09:20:18.617Z,425
2017-05-13T09:21:19.289Z,430
2017-05-13T09:22:19.974Z,440
2017-05-13T09:23:20.647Z,460
2017-05-13T09:24:21.313Z,510
2017-05-13T09:25:21.999Z,535
2017-05-13T09:26:22.703Z,505
2017-05-13T09:27:23.389Z,515
2017-05-13T09:28:24.066Z,520
2017-05-13T09:29:24.729Z,520
2017-05-13T09:30:25.405Z,515
2017-05-13T09:31:26.080Z,510
2017-05-13T09:32:26.759Z,510
2017-05-13T09:33:27.468Z,520
2017-05-13T09:34:28.199Z,540
2017-05-13T09:35:28.917Z,555
2017-05-13T09:36:29.588Z,570
2017-05-13T09:37:30.269Z,590
2017-05-13T09:38:30.952Z,610
2017-05-13T09:39:31.657Z,605
2017-05-13T09:40:32.329Z,610
2017-05-13T09:41:33.000Z,630
2017-05-13T09:42:33.689Z,730
2017-05-13T09:43:34.401Z,1075
2017-05-13T09:44:35.121Z,1505
2017-05-13T09:45:35.803Z,1065
2017-05-13T09:46:36.473Z,965
2017-05-13T09:47:37.145Z,1015
2017-05-13T09:48:37.817Z,995
2017-05-13T09:49:38.494Z,995
2017-05-13T09:50:39.199Z,970
2017-05-13T09:51:39.868Z,975
2017-05-13T09:52:40.542Z,955
2017-05-13T09:53:41.214Z,925
2017-05-13T09:54:41.913Z,850
2017-05-13T09:55:42.615Z,905
2017-05-13T09:56:43.295Z,905
2017-05-13T09:57:44.006Z,895
2017-05-13T09:58:44.711Z,935
2017-05-13T09:59:45.413Z,940
2017-05-13T10:00:46.160Z,920
2017-05-13T10:01:46.851Z,905
2017-05-13T10:02:47.521Z,880
2017-05-13T10:03:48.204Z,885
2017-05-13T10:04:48.885Z,860
2017-05-13T10:05:49.607Z,840
2017-05-13T10:06:50.328Z,810
2017-05-13T10:07:51.012Z,810
2017-05-13T10:08:51.733Z,845
2017-05-13T10:09:52.435Z,865
2017-05-13T10:10:53.114Z,885
2017-05-13T10:11:53.779Z,870
2017-05-13T10:12:54.455Z,850
2017-05-13T10:13:55.140Z,845
2017-05-13T10:14:55.820Z,840
2017-05-13T10:15:56.514Z,840
2017-05-13T10:16:57.188Z,835
2017-05-13T10:17:57.860Z,820
2017-05-13T10:18:58.551Z,805
2017-05-13T10:19:59.264Z,825
2017-05-13T10:20:59.943Z,850
2017-05-13T10:22:00.661Z,885
2017-05-13T10:23:01.373Z,915
2017-05-13T10:24:02.035Z,935
2017-05-13T10:25:02.729Z,935
2017-05-13T10:26:03.414Z,930
2017-05-13T10:27:04.137Z,925
2017-05-13T10:28:04.841Z,910
2017-05-13T10:29:05.525Z,915
2017-05-13T10:30:06.204Z,890
2017-05-13T10:31:06.906Z,860
2017-05-13T10:32:07.596Z,825
2017-05-13T10:33:08.306Z,800
2017-05-13T10:34:08.986Z,765
2017-05-13T10:35:09.667Z,745
2017-05-13T10:36:10.354Z,735
2017-05-13T10:37:11.153Z,725
2017-05-13T10:38:11.826Z,725
2017-05-13T10:39:12.497Z,710
2017-05-13T10:40:13.167Z,705
2017-05-13T10:41:13.890Z,720
2017-05-13T10:42:14.561Z,765
2017-05-13T10:43:15.271Z,750
2017-05-13T10:44:15.967Z,730
2017-05-13T10:45:16.648Z,695
2017-05-13T10:46:17.331Z,690
2017-05-13T10:47:18.026Z,710
2017-05-13T10:48:18.757Z,760
2017-05-13T10:49:19.424Z,790
2017-05-13T10:50:20.144Z,750
2017-05-13T10:51:20.923Z,690
2017-05-13T10:52:21.652Z,605
2017-05-13T10:53:22.325Z,530
2017-05-13T10:54:23.052Z,580
2017-05-13T10:55:23.736Z,600
2017-05-13T10:56:24.444Z,600
2017-05-13T10:57:25.172Z,585
2017-05-13T10:58:25.885Z,565
2017-05-13T10:59:26.605Z,530
2017-05-13T11:00:27.273Z,495
2017-05-13T11:01:27.966Z,500
2017-05-13T11:02:28.674Z,515
2017-05-13T11:03:29.424Z,530
2017-05-13T11:04:30.861Z,525
2017-05-13T11:05:31.568Z,535
2017-05-13T11:06:32.255Z,545
2017-05-13T11:07:32.957Z,545
2017-05-13T11:08:33.649Z,555
2017-05-13T11:09:34.338Z,565
2017-05-13T11:10:35.019Z,570
2017-05-13T11:11:35.697Z,580
2017-05-13T11:12:36.380Z,580
2017-05-13T11:13:37.085Z,560
2017-05-13T11:14:37.764Z,570
2017-05-13T11:15:38.442Z,565
2017-05-13T11:16:39.122Z,555
2017-05-13T11:17:39.831Z,530
2017-05-13T11:18:40.515Z,530
2017-05-13T11:19:41.248Z,530
2017-05-13T11:20:41.950Z,515
2017-05-13T11:21:42.674Z,500
2017-05-13T11:22:43.350Z,475
2017-05-13T11:23:44.045Z,465
2017-05-13T11:24:44.729Z,450
2017-05-13T11:25:45.423Z,430
2017-05-13T11:26:46.147Z,415
2017-05-13T11:27:46.836Z,405
2017-05-13T11:28:47.513Z,410
2017-05-13T11:29:48.248Z,410
2017-05-13T11:30:48.933Z,430
2017-05-13T11:31:49.648Z,490
2017-05-13T11:32:50.380Z,520
2017-05-13T11:33:51.106Z,515
2017-05-13T11:34:51.781Z,500
2017-05-13T11:35:52.526Z,465
2017-05-13T11:36:53.222Z,430
2017-05-13T11:37:53.911Z,395
2017-05-13T11:38:54.597Z,360
2017-05-13T11:39:55.283Z,345
2017-05-13T11:40:55.968Z,340
2017-05-13T11:41:56.814Z,335
2017-05-13T11:42:57.525Z,340
2017-05-13T11:43:58.212Z,355
2017-05-13T11:44:58.910Z,375
2017-05-13T11:45:59.628Z,395
2017-05-13T11:47:00.312Z,425
2017-05-13T11:48:01.009Z,440
2017-05-13T11:49:01.858Z,450
2017-05-13T11:50:02.542Z,455
2017-05-13T11:51:03.246Z,460
2017-05-13T11:52:04.077Z,460
2017-05-13T11:53:04.816Z,465
2017-05-13T11:54:05.518Z,455
2017-05-13T11:55:06.204Z,450
2017-05-13T11:56:07.168Z,445
2017-05-13T11:57:07.869Z,435
2017-05-13T11:58:08.627Z,420
2017-05-13T11:59:09.300Z,385
2017-05-13T12:00:10.039Z,345
2017-05-13T12:01:10.927Z,270
2017-05-13T12:02:11.613Z,235
2017-05-13T12:03:12.362Z,220
2017-05-13T12:04:13.068Z,210
2017-05-13T12:05:13.847Z,200
2017-05-13T12:06:14.464Z,185
2017-05-13T12:07:15.151Z,175
2017-05-13T12:08:15.973Z,155
2017-05-13T12:09:16.649Z,140
2017-05-13T12:10:17.371Z,130
2017-05-13T12:11:18.073Z,120
2017-05-13T12:12:18.783Z,115
2017-05-13T12:13:19.469Z,105
2017-05-13T12:14:20.223Z,105
2017-05-13T12:15:20.912Z,100
2017-05-13T12:16:21.738Z,100
2017-05-13T12:17:22.503Z,100
2017-05-13T12:18:23.205Z,100
2017-05-13T12:19:23.889Z,95
2017-05-13T12:20:24.599Z,95
2017-05-13T12:21:25.305Z,95
2017-05-13T12:22:26.000Z,95
2017-05-13T12:23:26.736Z,95
2017-05-13T12:24:27.424Z,95
2017-05-13T12:25:28.125Z,90
2017-05-13T12:26:28.826Z,85
2017-05-13T12:27:29.489Z,85
2017-05-13T12:28:30.195Z,80
2017-05-13T12:29:30.887Z,75
2017-05-13T12:30:31.581Z,70
2017-05-13T12:31:32.288Z,65
2017-05-13T12:32:32.985Z,65
2017-05-13T12:33:33.680Z,65
2017-05-13T12:34:34.410Z,65
2017-05-13T12:35:35.091Z,70
2017-05-13T12:36:35.783Z,70
2017-05-13T12:37:36.482Z,70
2017-05-13T12:38:37.232Z,65
2017-05-13T12:39:38.002Z,65
2017-05-13T12:40:38.721Z,65
2017-05-13T12:41:39.421Z,65
2017-05-13T12:42:40.113Z,65
2017-05-13T12:43:40.795Z,60
2017-05-13T12:44:41.532Z,60
2017-05-13T12:45:42.232Z,60
2017-05-13T12:46:42.917Z,55
2017-05-13T12:47:43.740Z,55
2017-05-13T12:48:44.444Z,55
2017-05-13T12:49:45.113Z,50
2017-05-13T12:50:45.795Z,50
2017-05-13T12:51:46.499Z,45
2017-05-13T12:52:47.182Z,45
2017-05-13T12:53:47.875Z,45
2017-05-13T12:54:48.585Z,40
2017-05-13T12:55:49.275Z,40
2017-05-13T12:56:49.994Z,40
2017-05-13T12:57:50.800Z,40
2017-05-13T12:58:51.475Z,40
2017-05-13T12:59:52.205Z,40
2017-05-13T13:00:52.960Z,40
2017-05-13T13:01:53.716Z,40
2017-05-13T13:02:54.445Z,40
2017-05-13T13:03:55.142Z,40
2017-05-13T13:04:55.975Z,40
2017-05-13T13:05:56.737Z,40
2017-05-13T13:06:57.503Z,45
2017-05-13T13:07:58.157Z,45
2017-05-13T13:08:58.871Z,45
2017-05-13T13:09:59.538Z,45
2017-05-13T13:11:00.235Z,50
2017-05-13T13:12:01.205Z,50
2017-05-13T13:13:02.012Z,50
2017-05-13T13:14:02.706Z,50
2017-05-13T13:15:03.470Z,50
2017-05-13T13:16:04.147Z,50
2017-05-13T13:17:04.852Z,50
2017-05-13T13:18:05.532Z,55
2017-05-13T13:19:06.249Z,55
2017-05-13T13:20:06.951Z,55
2017-05-13T13:21:07.658Z,60
2017-05-13T13:22:08.364Z,60
2017-05-13T13:23:09.049Z,60
2017-05-13T13:24:09.709Z,65
2017-05-13T13:25:10.384Z,65
2017-05-13T13:26:11.070Z,70
2017-05-13T13:27:11.777Z,70
2017-05-13T13:28:12.467Z,70
2017-05-13T13:29:13.186Z,75
2017-05-13T13:30:13.864Z,75
2017-05-13T13:31:14.548Z,75
2017-05-13T13:32:15.249Z,80
2017-05-13T13:33:15.973Z,80
2017-05-13T13:34:16.683Z,85
2017-05-13T13:35:17.366Z,85
2017-05-13T13:36:18.040Z,90
2017-05-13T13:37:18.711Z,90
2017-05-13T13:38:19.392Z,95
2017-05-13T13:39:20.113Z,100
2017-05-13T13:40:20.830Z,100
2017-05-13T13:41:21.515Z,105
2017-05-13T13:42:22.242Z,110
2017-05-13T13:43:22.921Z,115
2017-05-13T13:44:23.624Z,115
2017-05-13T13:45:24.294Z,125
2017-05-13T13:46:24.979Z,135
2017-05-13T13:47:25.691Z,145
2017-05-13T13:48:26.386Z,155
2017-05-13T13:49:27.086Z,165
2017-05-13T13:50:27.759Z,170
2017-05-13T13:51:28.470Z,175
2017-05-13T13:52:29.149Z,180
2017-05-13T13:53:29.826Z,185
2017-05-13T13:54:30.505Z,180
2017-05-13T13:55:31.225Z,175
2017-05-13T13:56:31.954Z,170
2017-05-13T13:57:32.661Z,170
2017-05-13T13:58:33.339Z,160
2017-05-13T13:59:34.010Z,155
2017-05-13T14:00:34.694Z,150
2017-05-13T14:01:35.417Z,150
2017-05-13T14:02:36.134Z,140
2017-05-13T14:03:36.809Z,135
2017-05-13T14:04:37.528Z,125
2017-05-13T14:05:38.212Z,115
2017-05-13T14:06:38.893Z,110
2017-05-13T14:07:39.605Z,105
2017-05-13T14:08:40.319Z,100
2017-05-13T14:09:40.985Z,100
2017-05-13T14:10:41.670Z,95
2017-05-13T14:11:42.342Z,95
2017-05-13T14:12:43.066Z,95
2017-05-13T14:13:43.789Z,90
2017-05-13T14:14:44.471Z,90
2017-05-13T14:15:45.185Z,90
2017-05-13T14:16:45.873Z,90
2017-05-13T14:17:46.563Z,85
2017-05-13T14:18:47.243Z,85
2017-05-13T14:19:47.918Z,85
2017-05-13T14:20:48.602Z,85
2017-05-13T14:21:49.335Z,85
2017-05-13T14:22:50.031Z,85
2017-05-13T14:23:50.710Z,85
2017-05-13T14:24:51.438Z,85
2017-05-13T14:25:52.154Z,90
2017-05-13T14:26:52.840Z,90
2017-05-13T14:27:53.510Z,95
2017-05-13T14:28:54.221Z,95
2017-05-13T14:29:54.924Z,100
2017-05-13T14:30:55.627Z,100
2017-05-13T14:31:56.310Z,100
2017-05-13T14:32:57.010Z,105
2017-05-13T14:33:57.683Z,105
2017-05-13T14:34:58.372Z,105
2017-05-13T14:35:59.078Z,105
2017-05-13T14:36:59.806Z,105
2017-05-13T14:38:00.472Z,105
2017-05-13T14:39:01.148Z,105
2017-05-13T14:40:01.817Z,105
2017-05-13T14:41:02.512Z,105
2017-05-13T14:42:03.211Z,110
2017-05-13T14:43:03.944Z,115
2017-05-13T14:44:04.623Z,120
2017-05-13T14:45:05.338Z,120
2017-05-13T14:46:06.051Z,130
2017-05-13T14:47:06.722Z,140
2017-05-13T14:48:07.402Z,150
2017-05-13T14:49:08.082Z,160
2017-05-13T14:50:08.850Z,165
2017-05-13T14:51:09.554Z,170
2017-05-13T14:52:10.248Z,175
2017-05-13T14:53:10.968Z,180
2017-05-13T14:54:11.646Z,185
2017-05-13T14:55:12.324Z,190
2017-05-13T14:56:12.992Z,195
2017-05-13T14:57:13.657Z,195
2017-05-13T14:58:14.331Z,195
2017-05-13T14:59:14.995Z,190
2017-05-13T15:00:15.674Z,185
2017-05-13T15:01:16.350Z,180
2017-05-13T15:02:17.028Z,175
2017-05-13T15:03:17.753Z,175
2017-05-13T15:04:18.433Z,180
2017-05-13T15:05:19.116Z,185
2017-05-13T15:06:19.813Z,190
2017-05-13T15:07:20.512Z,195
2017-05-13T15:08:21.210Z,205
2017-05-13T15:09:21.889Z,215
2017-05-13T15:10:22.600Z,235
2017-05-13T15:11:23.270Z,255
2017-05-13T15:12:23.960Z,275
2017-05-13T15:13:24.668Z,310
2017-05-13T15:14:25.336Z,340
2017-05-13T15:15:26.039Z,370
2017-05-13T15:16:26.743Z,405
2017-05-13T15:17:27.436Z,430
2017-05-13T15:18:28.168Z,450
2017-05-13T15:19:28.860Z,480
2017-05-13T15:20:29.529Z,495
2017-05-13T15:21:30.212Z,510
2017-05-13T15:22:30.906Z,515
2017-05-13T15:23:31.596Z,520
2017-05-13T15:24:32.286Z,510
2017-05-13T15:25:32.983Z,495
2017-05-13T15:26:33.674Z,485
2017-05-13T15:27:34.358Z,500
2017-05-13T15:28:35.057Z,510
2017-05-13T15:29:35.748Z,515
2017-05-13T15:30:36.463Z,515
2017-05-13T15:31:37.155Z,515
2017-05-13T15:32:37.874Z,485
2017-05-13T15:33:38.567Z,445
2017-05-13T15:34:39.246Z,405
2017-05-13T15:35:39.937Z,370
2017-05-13T15:36:40.620Z,330
2017-05-13T15:37:41.321Z,310
2017-05-13T15:38:42.034Z,295
2017-05-13T15:39:42.732Z,285
2017-05-13T15:40:43.429Z,290
2017-05-13T15:41:44.115Z,280
2017-05-13T15:42:44.792Z,260
2017-05-13T15:43:45.509Z,235
2017-05-13T15:44:46.199Z,210
2017-05-13T15:45:46.881Z,195
2017-05-13T15:46:47.575Z,180
2017-05-13T15:47:48.260Z,180
2017-05-13T15:48:48.995Z,190
2017-05-13T15:49:49.661Z,200
2017-05-13T15:50:50.335Z,220
2017-05-13T15:51:51.045Z,240
2017-05-13T15:52:51.714Z,275
2017-05-13T15:53:52.398Z,295
2017-05-13T15:54:53.077Z,280
2017-05-13T15:55:53.782Z,245
2017-05-13T15:56:54.478Z,220
2017-05-13T15:57:55.233Z,210
2017-05-13T15:58:55.932Z,200
2017-05-13T15:59:56.616Z,185
2017-05-13T16:00:57.300Z,170
2017-05-13T16:01:57.979Z,165
2017-05-13T16:02:58.697Z,160
2017-05-13T16:03:59.375Z,160
2017-05-13T16:05:00.064Z,160
2017-05-13T16:06:00.765Z,155
2017-05-13T16:07:01.437Z,145
2017-05-13T16:08:02.144Z,145
2017-05-13T16:09:02.834Z,135
2017-05-13T16:10:03.529Z,135
2017-05-13T16:11:04.214Z,145
2017-05-13T16:12:04.894Z,160
2017-05-13T16:13:05.621Z,185
2017-05-13T16:14:06.297Z,210
2017-05-13T16:15:06.978Z,220
2017-05-13T16:16:07.652Z,215
2017-05-13T16:17:08.349Z,205
2017-05-13T16:18:09.024Z,190
2017-05-13T16:19:09.711Z,180
2017-05-13T16:20:10.418Z,170
2017-05-13T16:21:11.132Z,170
2017-05-13T16:22:11.827Z,185
2017-05-13T16:23:12.512Z,195
2017-05-13T16:24:13.205Z,205
2017-05-13T16:25:13.899Z,215
2017-05-13T16:26:14.628Z,205
2017-05-13T16:27:15.312Z,185
2017-05-13T16:28:16.000Z,165
2017-05-13T16:29:16.687Z,155
2017-05-13T16:30:17.427Z,155
2017-05-13T16:31:18.078Z,145
2017-05-13T16:32:18.767Z,145
2017-05-13T16:33:19.450Z,140
2017-05-13T16:34:20.138Z,130
2017-05-13T16:35:20.825Z,120
2017-05-13T16:36:21.509Z,115
2017-05-13T16:37:22.217Z,115
2017-05-13T16:38:22.903Z,110
2017-05-13T16:39:23.618Z,110
2017-05-13T16:40:24.333Z,115
2017-05-13T16:41:25.006Z,110
2017-05-13T16:42:25.728Z,110
2017-05-13T16:43:26.420Z,110
2017-05-13T16:44:27.102Z,110
2017-05-13T16:45:27.796Z,105
2017-05-13T16:46:28.523Z,105
2017-05-13T16:47:29.245Z,110
2017-05-13T16:48:29.937Z,115
2017-05-13T16:49:30.637Z,125
2017-05-13T16:50:31.305Z,130
2017-05-13T16:51:31.982Z,125
2017-05-13T16:52:32.670Z,120
2017-05-13T16:53:33.374Z,115
2017-05-13T16:54:34.048Z,115
2017-05-13T16:55:34.728Z,110
2017-05-13T16:56:35.450Z,110
2017-05-13T16:57:36.169Z,110
2017-05-13T16:58:36.837Z,110
2017-05-13T16:59:37.519Z,105
2017-05-13T17:00:38.234Z,110
2017-05-13T17:01:38.915Z,110
2017-05-13T17:02:39.590Z,110
2017-05-13T17:03:40.288Z,110
2017-05-13T17:04:40.976Z,110
2017-05-13T17:05:41.650Z,110
2017-05-13T17:06:42.325Z,110
2017-05-13T17:07:43.005Z,110
2017-05-13T17:08:43.722Z,110
2017-05-13T17:09:44.392Z,110
2017-05-13T17:10:45.087Z,110
2017-05-13T17:11:45.786Z,105
2017-05-13T17:12:46.474Z,105
2017-05-13T17:13:47.146Z,105
2017-05-13T17:14:47.855Z,110
2017-05-13T17:15:48.526Z,110
2017-05-13T17:16:49.226Z,105
2017-05-13T17:17:49.941Z,100
2017-05-13T17:18:50.642Z,95
2017-05-13T17:19:51.337Z,95
2017-05-13T17:20:52.013Z,95
2017-05-13T17:21:52.692Z,95
2017-05-13T17:22:53.441Z,90
2017-05-13T17:23:54.115Z,80
2017-05-13T17:24:54.788Z,80
2017-05-13T17:25:55.467Z,75
2017-05-13T17:26:56.139Z,75
2017-05-13T17:27:56.874Z,70
2017-05-13T17:28:57.564Z,70
2017-05-13T17:29:58.261Z,65
2017-05-13T17:30:58.978Z,65
2017-05-13T17:31:59.672Z,65
2017-05-13T17:33:00.393Z,65
2017-05-13T17:34:01.064Z,60
2017-05-13T17:35:01.763Z,55
2017-05-13T17:36:02.461Z,50
2017-05-13T17:37:03.177Z,45
2017-05-13T17:38:03.904Z,45
2017-05-13T17:39:04.637Z,45
2017-05-13T17:40:05.328Z,45
2017-05-13T17:41:06.015Z,40
2017-05-13T17:42:06.695Z,40
2017-05-13T17:43:07.377Z,40
2017-05-13T17:44:08.062Z,35
2017-05-13T17:45:08.807Z,35
2017-05-13T17:46:09.534Z,35
2017-05-13T17:47:10.238Z,35
2017-05-13T17:48:10.939Z,35
2017-05-13T17:49:11.651Z,30
2017-05-13T17:50:12.322Z,30
2017-05-13T17:51:13.026Z,25
2017-05-13T17:52:13.705Z,25
2017-05-13T17:53:14.406Z,25
2017-05-13T17:54:15.095Z,20
2017-05-13T17:55:15.769Z,20
2017-05-13T17:56:16.449Z,20
2017-05-13T17:57:17.139Z,15
2017-05-13T17:58:17.846Z,15
2017-05-13T17:59:18.567Z,10
2017-05-13T18:00:19.239Z,15
2017-05-13T18:01:19.919Z,15
2017-05-13T18:02:20.603Z,15
2017-05-13T18:03:21.305Z,20
2017-05-13T18:04:21.988Z,20
2017-05-13T18:05:22.677Z,20
2017-05-13T18:06:23.415Z,25
2017-05-13T18:07:24.059Z,20
2017-05-13T18:08:24.776Z,20
2017-05-13T18:09:25.447Z,20
2017-05-13T18:10:26.113Z,20
2017-05-13T18:11:26.811Z,20
2017-05-13T18:12:27.555Z,20
2017-05-13T18:13:28.238Z,20
2017-05-13T18:14:28.952Z,20
2017-05-13T18:15:29.630Z,20
2017-05-13T18:16:30.355Z,20
2017-05-13T18:17:31.034Z,20
2017-05-13T18:18:31.705Z,20
2017-05-13T18:19:32.409Z,20
2017-05-13T18:20:33.093Z,20
2017-05-13T18:21:33.771Z,20
2017-05-13T18:22:34.443Z,20
2017-05-13T18:23:35.117Z,20
2017-05-13T18:24:35.836Z,25
2017-05-13T18:25:36.549Z,25
2017-05-13T18:26:37.222Z,25
2017-05-13T18:27:37.919Z,30
2017-05-13T18:28:38.635Z,30
2017-05-13T18:29:39.315Z,30
2017-05-13T18:30:40.017Z,30
2017-05-13T18:31:40.699Z,30
2017-05-13T18:32:41.428Z,30
2017-05-13T18:33:42.130Z,30
2017-05-13T18:34:42.801Z,30
2017-05-13T18:35:43.482Z,25
2017-05-13T18:36:44.167Z,25
2017-05-13T18:37:44.847Z,20
2017-05-13T18:38:45.571Z,20
2017-05-13T18:39:46.266Z,15
2017-05-13T18:40:46.945Z,10
2017-05-13T18:41:47.623Z,10
2017-05-13T18:42:48.352Z,10
2017-05-13T18:43:49.069Z,5
2017-05-13T18:44:49.754Z,5
2017-05-13T18:45:50.435Z,5
2017-05-13T18:46:51.143Z,5
2017-05-13T18:47:51.818Z,0
2017-05-13T18:48:52.501Z,0
2017-05-13T18:49:53.169Z,0
2017-05-13T18:50:53.848Z,0
2017-05-13T18:51:54.592Z,0
2017-05-13T18:52:55.323Z,0
2017-05-13T18:53:55.988Z,0
2017-05-13T18:54:56.661Z,0
2017-05-13T18:55:57.340Z,0
2017-05-13T18:56:58.056Z,0
2017-05-13T18:57:58.757Z,0
2017-05-13T18:58:59.460Z,0
2017-05-13T19:00:00.149Z,0
2017-05-13T19:01:00.830Z,0
2017-05-13T19:02:01.528Z,0
2017-05-13T19:03:02.204Z,0
2017-05-13T19:04:02.891Z,0
2017-05-13T19:05:03.596Z,0
2017-05-13T19:06:04.315Z,0
2017-05-13T19:07:05.037Z,0
2017-05-13T19:08:05.761Z,0
2017-05-13T19:09:06.433Z,0
2017-05-13T19:10:07.113Z,0
2017-05-13T19:11:07.857Z,0
2017-05-13T19:12:08.559Z,0
2017-05-13T19:13:09.274Z,0
2017-05-13T19:14:09.950Z,0
2017-05-13T19:15:10.631Z,0
2017-05-13T19:16:11.317Z,0
2017-05-13T19:17:11.996Z,0
2017-05-13T19:18:12.697Z,0
2017-05-13T19:19:13.380Z,0
2017-05-13T19:20:14.058Z,0
2017-05-13T19:21:14.758Z,0
2017-05-13T19:22:15.449Z,0
2017-05-13T19:23:16.121Z,0
2017-05-13T19:24:16.823Z,0
2017-05-13T19:25:17.525Z,0
2017-05-13T19:26:18.198Z,0
2017-05-13T19:27:18.888Z,0
2017-05-13T19:28:19.568Z,0
2017-05-13T19:29:20.255Z,0
2017-05-13T19:30:20.927Z,0
2017-05-13T19:31:21.607Z,0
2017-05-13T19:32:22.282Z,0
2017-05-13T19:33:22.952Z,0
2017-05-13T19:34:23.635Z,0
2017-05-13T19:35:24.343Z,0
2017-05-13T19:36:25.043Z,0
2017-05-13T19:37:25.742Z,0
2017-05-13T19:38:26.425Z,0
2017-05-13T19:39:27.136Z,0
2017-05-13T19:40:27.821Z,0
2017-05-13T19:41:28.510Z,0
2017-05-13T19:42:29.180Z,0
2017-05-13T19:43:29.861Z,0
2017-05-13T19:44:30.546Z,0
2017-05-13T19:45:31.231Z,0
2017-05-13T19:46:31.933Z,0
2017-05-13T19:47:32.607Z,0
2017-05-13T19:48:33.287Z,0
2017-05-13T19:49:33.971Z,0
2017-05-13T19:50:34.668Z,0
2017-05-13T19:51:35.349Z,0
2017-05-13T19:52:36.009Z,0
2017-05-13T19:53:36.694Z,0
2017-05-13T19:54:37.364Z,0
2017-05-13T19:55:38.032Z,0
2017-05-13T19:56:38.719Z,0
2017-05-13T19:57:39.419Z,0
2017-05-13T19:58:40.113Z,0
2017-05-13T19:59:40.797Z,0
2017-05-13T20:00:41.497Z,0
2017-05-13T20:01:42.183Z,0
2017-05-13T20:02:42.865Z,0
2017-05-13T20:03:43.562Z,0
2017-05-13T20:04:44.283Z,0
2017-05-13T20:05:44.954Z,0
2017-05-13T20:06:45.645Z,0
2017-05-13T20:07:46.327Z,0
2017-05-13T20:08:46.999Z,0
2017-05-13T20:09:47.698Z,0
2017-05-13T20:10:48.370Z,0
2017-05-13T20:11:49.043Z,0
2017-05-13T20:12:49.723Z,0
2017-05-13T20:13:50.440Z,0
2017-05-13T20:14:51.125Z,0
2017-05-13T20:15:51.825Z,0
2017-05-13T20:16:52.508Z,0
2017-05-13T20:17:53.179Z,0
2017-05-13T20:18:53.855Z,0
2017-05-13T20:19:54.570Z,0
2017-05-13T20:20:55.253Z,0
2017-05-13T20:21:56.026Z,0
2017-05-13T20:22:56.664Z,0
2017-05-13T20:23:57.343Z,0
2017-05-13T20:24:58.031Z,0
2017-05-13T20:25:58.718Z,0
2017-05-13T20:26:59.443Z,0
2017-05-13T20:28:00.121Z,0
2017-05-13T20:29:00.816Z,0
2017-05-13T20:30:01.514Z,0
2017-05-13T20:31:02.179Z,0
2017-05-13T20:32:02.857Z,0
2017-05-13T20:33:03.520Z,0
2017-05-13T20:34:04.203Z,0
2017-05-13T20:35:04.894Z,0
2017-05-13T20:36:05.594Z,0
2017-05-13T20:37:06.268Z,0
2017-05-13T20:38:06.937Z,0
2017-05-13T20:39:07.611Z,0
2017-05-13T20:40:08.286Z,0
2017-05-13T20:41:08.966Z,0
2017-05-13T20:42:09.649Z,0
2017-05-13T20:43:10.356Z,0
2017-05-13T20:44:11.068Z,0
2017-05-13T20:45:11.749Z,0
2017-05-13T20:46:12.421Z,0
2017-05-13T20:47:13.115Z,0
2017-05-13T20:48:13.807Z,0
2017-05-13T20:49:14.491Z,0
2017-05-13T20:50:15.171Z,0
2017-05-13T20:51:15.865Z,0
2017-05-13T20:52:16.549Z,0
2017-05-13T20:53:17.221Z,0
2017-05-13T20:54:17.888Z,0
2017-05-13T20:55:18.563Z,0
2017-05-13T20:56:19.252Z,0
2017-05-13T20:57:19.980Z,0
2017-05-13T20:58:20.676Z,0
2017-05-13T20:59:21.356Z,0
2017-05-13T21:00:22.041Z,0
2017-05-13T21:01:22.730Z,0
2017-05-13T21:02:23.419Z,0
2017-05-13T21:03:24.095Z,0
2017-05-13T21:04:24.784Z,0
2017-05-13T21:05:25.463Z,0
2017-05-13T21:06:26.163Z,0
2017-05-13T21:07:26.880Z,0
2017-05-13T21:08:27.556Z,0
2017-05-13T21:09:28.223Z,0
2017-05-13T21:10:28.900Z,0
2017-05-13T21:11:29.582Z,0
2017-05-13T21:12:30.266Z,0
2017-05-13T21:13:30.963Z,0
2017-05-13T21:14:31.690Z,0
2017-05-13T21:15:32.365Z,0
2017-05-13T21:16:33.037Z,0
2017-05-13T21:17:33.710Z,0
2017-05-13T21:18:34.390Z,0
2017-05-13T21:19:35.062Z,0
2017-05-13T21:20:35.741Z,0
2017-05-13T21:21:36.454Z,0
2017-05-13T21:22:37.175Z,0
2017-05-13T21:23:37.872Z,0
2017-05-13T21:24:38.569Z,0
2017-05-13T21:25:39.258Z,0
2017-05-13T21:26:39.958Z,0
2017-05-13T21:27:40.850Z,0
2017-05-13T21:28:42.251Z,0
2017-05-13T21:29:43.151Z,0
2017-05-13T21:30:44.042Z,0
2017-05-13T21:31:44.892Z,0
2017-05-13T21:32:45.723Z,0
2017-05-13T21:33:46.674Z,0
2017-05-13T21:34:47.915Z,0
2017-05-13T21:35:48.584Z,0
2017-05-13T21:36:49.265Z,0
2017-05-13T21:37:49.929Z,0
2017-05-13T21:38:50.600Z,0
2017-05-13T21:39:51.281Z,0
2017-05-13T21:40:51.971Z,0
2017-05-13T21:41:52.657Z,0
2017-05-13T21:42:53.340Z,0
2017-05-13T21:43:54.026Z,0
2017-05-13T21:44:54.725Z,0
2017-05-13T21:45:55.470Z,0
2017-05-13T21:46:56.243Z,0
2017-05-13T21:47:56.907Z,0
2017-05-13T21:48:57.579Z,0
2017-05-13T21:49:58.289Z,0
2017-05-13T21:50:58.992Z,0
2017-05-13T21:51:59.684Z,0
2017-05-13T21:53:00.363Z,0
2017-05-13T21:54:01.798Z,0
2017-05-13T21:55:02.493Z,0
2017-05-13T21:56:03.178Z,0
2017-05-13T21:57:03.864Z,0
2017-05-13T21:58:04.547Z,0
2017-05-13T21:59:05.212Z,0
2017-05-13T22:00:05.891Z,0
2017-05-13T22:01:06.575Z,0
2017-05-13T22:02:07.260Z,0
2017-05-13T22:03:07.951Z,0
2017-05-13T22:04:08.627Z,0
2017-05-13T22:05:09.304Z,0
2017-05-13T22:06:10.000Z,0
2017-05-13T22:07:10.714Z,0
2017-05-13T22:08:11.417Z,0
2017-05-13T22:09:12.098Z,0
2017-05-13T22:10:12.768Z,0
2017-05-13T22:11:13.440Z,0
2017-05-13T22:12:14.112Z,0
2017-05-13T22:13:14.783Z,0
2017-05-13T22:14:15.463Z,0
2017-05-13T22:15:16.145Z,0
2017-05-13T22:16:16.872Z,0
2017-05-13T22:17:17.571Z,0
2017-05-13T22:18:18.270Z,0
2017-05-13T22:19:18.947Z,0
2017-05-13T22:20:19.647Z,0
2017-05-13T22:21:20.351Z,0
2017-05-13T22:22:21.004Z,0
2017-05-13T22:23:21.714Z,0
2017-05-13T22:24:22.379Z,0
2017-05-13T22:25:23.057Z,0
2017-05-13T22:26:23.729Z,0
2017-05-13T22:27:24.405Z,0
2017-05-13T22:28:25.106Z,0
2017-05-13T22:29:25.778Z,0
2017-05-13T22:30:26.476Z,0
2017-05-13T22:31:27.188Z,0
2017-05-13T22:32:28.577Z,0
2017-05-13T22:33:29.296Z,0
2017-05-13T22:34:29.980Z,0
2017-05-13T22:35:30.673Z,0
2017-05-13T22:36:31.355Z,0
2017-05-13T22:37:32.025Z,0
2017-05-13T22:38:32.710Z,0
2017-05-13T22:39:33.397Z,0
2017-05-13T22:40:34.055Z,0
2017-05-13T22:41:34.743Z,0
2017-05-13T22:42:35.407Z,0
2017-05-13T22:43:36.122Z,0